sensor_id;sensor_type;location;lat;lon;timestamp;P1;durP1;ratioP1;P2;durP2;ratioP2
15677;SDS011;7939;50.814;6.368;2024-02-04T00:00:39;2.25;;;2.05;;
15677;SDS011;7939;50.814;6.368;2024-02-04T00:03:05;2.20;;;2.00;;
15677;SDS011;7939;50.814;6.368;2024-02-04T00:05:32;2.13;;;1.85;;
15677;SDS011;7939;50.814;6.368;2024-02-04T00:07:59;1.85;;;1.60;;
15677;SDS011;7939;50.814;6.368;2024-02-04T00:10:27;1.90;;;1.80;;
15677;SDS011;7939;50.814;6.368;2024-02-04T00:12:54;3.08;;;1.88;;
15677;SDS011;7939;50.814;6.368;2024-02-04T00:15:22;1.67;;;1.45;;
15677;SDS011;7939;50.814;6.368;2024-02-04T00:17:49;1.65;;;1.55;;
15677;SDS011;7939;50.814;6.368;2024-02-04T00:20:16;1.80;;;1.70;;
15677;SDS011;7939;50.814;6.368;2024-02-04T00:22:42;1.67;;;1.58;;
15677;SDS011;7939;50.814;6.368;2024-02-04T00:25:09;2.60;;;1.73;;
15677;SDS011;7939;50.814;6.368;2024-02-04T00:27:37;1.95;;;1.73;;
15677;SDS011;7939;50.814;6.368;2024-02-04T00:30:04;1.60;;;1.50;;
15677;SDS011;7939;50.814;6.368;2024-02-04T00:32:33;1.80;;;1.70;;
15677;SDS011;7939;50.814;6.368;2024-02-04T00:35:00;1.77;;;1.60;;
15677;SDS011;7939;50.814;6.368;2024-02-04T00:37:27;1.73;;;1.63;;
15677;SDS011;7939;50.814;6.368;2024-02-04T00:39:54;1.70;;;1.60;;
15677;SDS011;7939;50.814;6.368;2024-02-04T00:42:21;1.65;;;1.40;;
15677;SDS011;7939;50.814;6.368;2024-02-04T00:44:47;1.60;;;1.50;;
15677;SDS011;7939;50.814;6.368;2024-02-04T00:47:14;1.60;;;1.50;;
15677;SDS011;7939;50.814;6.368;2024-02-04T00:49:42;2.10;;;1.90;;
15677;SDS011;7939;50.814;6.368;2024-02-04T00:52:09;2.60;;;1.80;;
15677;SDS011;7939;50.814;6.368;2024-02-04T00:54:36;1.50;;;1.40;;
15677;SDS011;7939;50.814;6.368;2024-02-04T00:57:03;1.50;;;1.40;;
15677;SDS011;7939;50.814;6.368;2024-02-04T00:59:30;1.65;;;1.50;;
15677;SDS011;7939;50.814;6.368;2024-02-04T01:01:57;1.50;;;1.40;;
15677;SDS011;7939;50.814;6.368;2024-02-04T01:04:24;1.73;;;1.45;;
15677;SDS011;7939;50.814;6.368;2024-02-04T01:06:52;1.45;;;1.30;;
15677;SDS011;7939;50.814;6.368;2024-02-04T01:09:19;1.40;;;1.30;;
15677;SDS011;7939;50.814;6.368;2024-02-04T01:11:46;1.15;;;1.10;;
15677;SDS011;7939;50.814;6.368;2024-02-04T01:14:13;1.58;;;1.42;;
15677;SDS011;7939;50.814;6.368;2024-02-04T01:16:39;1.00;;;1.00;;
15677;SDS011;7939;50.814;6.368;2024-02-04T01:19:06;1.05;;;1.00;;
15677;SDS011;7939;50.814;6.368;2024-02-04T01:21:33;1.00;;;1.00;;
15677;SDS011;7939;50.814;6.368;2024-02-04T01:24:01;1.08;;;1.00;;
15677;SDS011;7939;50.814;6.368;2024-02-04T01:26:28;1.30;;;1.20;;
15677;SDS011;7939;50.814;6.368;2024-02-04T01:28:55;1.15;;;1.10;;
15677;SDS011;7939;50.814;6.368;2024-02-04T01:31:22;1.50;;;1.40;;
15677;SDS011;7939;50.814;6.368;2024-02-04T01:33:48;1.13;;;1.08;;
15677;SDS011;7939;50.814;6.368;2024-02-04T01:36:15;1.08;;;0.98;;
15677;SDS011;7939;50.814;6.368;2024-02-04T01:38:42;1.30;;;0.82;;
15677;SDS011;7939;50.814;6.368;2024-02-04T01:41:10;1.08;;;1.08;;
15677;SDS011;7939;50.814;6.368;2024-02-04T01:43:36;1.00;;;1.00;;
15677;SDS011;7939;50.814;6.368;2024-02-04T01:46:03;1.13;;;1.02;;
15677;SDS011;7939;50.814;6.368;2024-02-04T01:48:30;1.20;;;1.10;;
15677;SDS011;7939;50.814;6.368;2024-02-04T01:50:57;1.00;;;1.00;;
15677;SDS011;7939;50.814;6.368;2024-02-04T01:53:26;0.90;;;0.90;;
15677;SDS011;7939;50.814;6.368;2024-02-04T01:55:54;0.90;;;0.90;;
15677;SDS011;7939;50.814;6.368;2024-02-04T01:58:22;1.10;;;1.00;;
15677;SDS011;7939;50.814;6.368;2024-02-04T02:00:49;1.10;;;1.00;;
15677;SDS011;7939;50.814;6.368;2024-02-04T02:03:18;1.10;;;1.00;;
15677;SDS011;7939;50.814;6.368;2024-02-04T02:05:45;1.27;;;1.20;;
15677;SDS011;7939;50.814;6.368;2024-02-04T02:08:12;1.20;;;1.02;;
15677;SDS011;7939;50.814;6.368;2024-02-04T02:10:40;1.13;;;1.10;;
15677;SDS011;7939;50.814;6.368;2024-02-04T02:13:14;1.10;;;1.10;;
15677;SDS011;7939;50.814;6.368;2024-02-04T02:15:45;1.27;;;1.17;;
15677;SDS011;7939;50.814;6.368;2024-02-04T02:18:16;1.67;;;1.58;;
15677;SDS011;7939;50.814;6.368;2024-02-04T02:20:55;1.52;;;1.42;;
15677;SDS011;7939;50.814;6.368;2024-02-04T02:23:34;1.60;;;1.50;;
15677;SDS011;7939;50.814;6.368;2024-02-04T02:26:04;1.40;;;1.30;;
15677;SDS011;7939;50.814;6.368;2024-02-04T02:28:32;1.55;;;1.45;;
15677;SDS011;7939;50.814;6.368;2024-02-04T02:30:59;1.83;;;1.73;;
15677;SDS011;7939;50.814;6.368;2024-02-04T02:33:26;1.70;;;1.60;;
15677;SDS011;7939;50.814;6.368;2024-02-04T02:35:53;1.52;;;1.42;;
15677;SDS011;7939;50.814;6.368;2024-02-04T02:38:25;1.55;;;1.35;;
15677;SDS011;7939;50.814;6.368;2024-02-04T02:40:59;2.10;;;1.80;;
15677;SDS011;7939;50.814;6.368;2024-02-04T02:43:31;1.63;;;1.52;;
15677;SDS011;7939;50.814;6.368;2024-02-04T02:46:00;2.03;;;1.80;;
15677;SDS011;7939;50.814;6.368;2024-02-04T02:48:27;1.90;;;1.70;;
15677;SDS011;7939;50.814;6.368;2024-02-04T02:50:54;3.22;;;1.92;;
15677;SDS011;7939;50.814;6.368;2024-02-04T02:53:21;3.58;;;2.10;;
15677;SDS011;7939;50.814;6.368;2024-02-04T02:55:48;1.92;;;1.73;;
15677;SDS011;7939;50.814;6.368;2024-02-04T02:58:15;1.88;;;1.70;;
15677;SDS011;7939;50.814;6.368;2024-02-04T03:00:43;2.10;;;1.90;;
15677;SDS011;7939;50.814;6.368;2024-02-04T03:03:10;1.95;;;1.85;;
15677;SDS011;7939;50.814;6.368;2024-02-04T03:05:37;2.03;;;1.70;;
15677;SDS011;7939;50.814;6.368;2024-02-04T03:08:04;2.15;;;1.92;;
15677;SDS011;7939;50.814;6.368;2024-02-04T03:10:32;1.65;;;1.55;;
15677;SDS011;7939;50.814;6.368;2024-02-04T03:12:58;1.55;;;1.45;;
15677;SDS011;7939;50.814;6.368;2024-02-04T03:15:26;2.20;;;2.00;;
15677;SDS011;7939;50.814;6.368;2024-02-04T03:17:54;2.30;;;2.10;;
15677;SDS011;7939;50.814;6.368;2024-02-04T03:20:21;1.88;;;1.70;;
15677;SDS011;7939;50.814;6.368;2024-02-04T03:22:47;1.88;;;1.65;;
15677;SDS011;7939;50.814;6.368;2024-02-04T03:25:14;2.10;;;1.70;;
15677;SDS011;7939;50.814;6.368;2024-02-04T03:27:41;1.85;;;1.63;;
15677;SDS011;7939;50.814;6.368;2024-02-04T03:30:09;2.13;;;1.92;;
15677;SDS011;7939;50.814;6.368;2024-02-04T03:32:36;2.83;;;2.10;;
15677;SDS011;7939;50.814;6.368;2024-02-04T03:35:05;2.30;;;2.10;;
15677;SDS011;7939;50.814;6.368;2024-02-04T03:37:32;2.53;;;2.13;;
15677;SDS011;7939;50.814;6.368;2024-02-04T03:39:59;2.60;;;2.40;;
15677;SDS011;7939;50.814;6.368;2024-02-04T03:42:25;1.95;;;1.77;;
15677;SDS011;7939;50.814;6.368;2024-02-04T03:44:53;1.98;;;1.80;;
15677;SDS011;7939;50.814;6.368;2024-02-04T03:47:20;2.72;;;1.75;;
15677;SDS011;7939;50.814;6.368;2024-02-04T03:49:46;2.90;;;1.80;;
15677;SDS011;7939;50.814;6.368;2024-02-04T03:52:14;2.70;;;1.98;;
15677;SDS011;7939;50.814;6.368;2024-02-04T03:54:41;2.20;;;2.00;;
15677;SDS011;7939;50.814;6.368;2024-02-04T03:57:08;2.35;;;2.13;;
15677;SDS011;7939;50.814;6.368;2024-02-04T03:59:35;2.40;;;2.20;;
15677;SDS011;7939;50.814;6.368;2024-02-04T04:02:01;3.08;;;2.13;;
15677;SDS011;7939;50.814;6.368;2024-02-04T04:04:28;2.95;;;2.17;;
15677;SDS011;7939;50.814;6.368;2024-02-04T04:06:55;2.72;;;2.38;;
15677;SDS011;7939;50.814;6.368;2024-02-04T04:09:23;3.80;;;2.67;;
15677;SDS011;7939;50.814;6.368;2024-02-04T04:11:50;2.70;;;2.17;;
15677;SDS011;7939;50.814;6.368;2024-02-04T04:14:16;3.15;;;2.60;;
15677;SDS011;7939;50.814;6.368;2024-02-04T04:16:43;2.08;;;1.88;;
15677;SDS011;7939;50.814;6.368;2024-02-04T04:19:10;2.53;;;1.98;;
15677;SDS011;7939;50.814;6.368;2024-02-04T04:21:37;4.30;;;2.92;;
15677;SDS011;7939;50.814;6.368;2024-02-04T04:24:05;3.22;;;2.33;;
15677;SDS011;7939;50.814;6.368;2024-02-04T04:26:33;2.63;;;2.17;;
15677;SDS011;7939;50.814;6.368;2024-02-04T04:29:00;2.45;;;2.10;;
15677;SDS011;7939;50.814;6.368;2024-02-04T04:31:27;2.97;;;2.30;;
15677;SDS011;7939;50.814;6.368;2024-02-04T04:33:54;2.25;;;2.00;;
15677;SDS011;7939;50.814;6.368;2024-02-04T04:36:20;3.67;;;2.33;;
15677;SDS011;7939;50.814;6.368;2024-02-04T04:38:47;2.75;;;2.20;;
15677;SDS011;7939;50.814;6.368;2024-02-04T04:41:15;3.80;;;1.90;;
15677;SDS011;7939;50.814;6.368;2024-02-04T04:43:43;3.17;;;2.25;;
15677;SDS011;7939;50.814;6.368;2024-02-04T04:46:10;3.55;;;2.47;;
15677;SDS011;7939;50.814;6.368;2024-02-04T04:48:37;2.72;;;2.25;;
15677;SDS011;7939;50.814;6.368;2024-02-04T04:51:03;3.72;;;2.30;;
15677;SDS011;7939;50.814;6.368;2024-02-04T04:53:30;2.65;;;2.22;;
15677;SDS011;7939;50.814;6.368;2024-02-04T04:55:57;3.13;;;2.15;;
15677;SDS011;7939;50.814;6.368;2024-02-04T04:58:24;3.97;;;2.92;;
15677;SDS011;7939;50.814;6.368;2024-02-04T05:00:52;4.07;;;2.83;;
15677;SDS011;7939;50.814;6.368;2024-02-04T05:03:19;3.83;;;3.10;;
15677;SDS011;7939;50.814;6.368;2024-02-04T05:05:45;3.28;;;2.63;;
15677;SDS011;7939;50.814;6.368;2024-02-04T05:08:12;3.45;;;2.70;;
15677;SDS011;7939;50.814;6.368;2024-02-04T05:10:40;4.60;;;3.33;;
15677;SDS011;7939;50.814;6.368;2024-02-04T05:13:07;4.38;;;3.10;;
15677;SDS011;7939;50.814;6.368;2024-02-04T05:15:34;4.75;;;3.30;;
15677;SDS011;7939;50.814;6.368;2024-02-04T05:18:02;5.05;;;3.60;;
15677;SDS011;7939;50.814;6.368;2024-02-04T05:20:29;4.35;;;3.50;;
15677;SDS011;7939;50.814;6.368;2024-02-04T05:22:57;5.45;;;3.92;;
15677;SDS011;7939;50.814;6.368;2024-02-04T05:25:24;5.43;;;3.80;;
15677;SDS011;7939;50.814;6.368;2024-02-04T05:27:54;5.25;;;3.25;;
15677;SDS011;7939;50.814;6.368;2024-02-04T05:30:21;6.20;;;3.53;;
15677;SDS011;7939;50.814;6.368;2024-02-04T05:32:48;4.80;;;3.75;;
15677;SDS011;7939;50.814;6.368;2024-02-04T05:35:16;4.20;;;3.30;;
15677;SDS011;7939;50.814;6.368;2024-02-04T05:37:43;4.55;;;3.00;;
15677;SDS011;7939;50.814;6.368;2024-02-04T05:40:10;4.07;;;3.13;;
15677;SDS011;7939;50.814;6.368;2024-02-04T05:42:40;3.92;;;3.30;;
15677;SDS011;7939;50.814;6.368;2024-02-04T05:45:07;2.78;;;2.45;;
15677;SDS011;7939;50.814;6.368;2024-02-04T05:47:35;3.45;;;2.40;;
15677;SDS011;7939;50.814;6.368;2024-02-04T05:50:02;2.45;;;2.08;;
15677;SDS011;7939;50.814;6.368;2024-02-04T05:52:30;2.42;;;2.22;;
15677;SDS011;7939;50.814;6.368;2024-02-04T05:54:57;1.98;;;1.75;;
15677;SDS011;7939;50.814;6.368;2024-02-04T05:57:23;2.10;;;1.75;;
15677;SDS011;7939;50.814;6.368;2024-02-04T05:59:50;2.00;;;1.50;;
15677;SDS011;7939;50.814;6.368;2024-02-04T06:02:18;3.55;;;1.60;;
15677;SDS011;7939;50.814;6.368;2024-02-04T06:04:44;2.00;;;1.52;;
15677;SDS011;7939;50.814;6.368;2024-02-04T06:07:13;1.83;;;1.20;;
15677;SDS011;7939;50.814;6.368;2024-02-04T06:09:41;1.40;;;1.30;;
15677;SDS011;7939;50.814;6.368;2024-02-04T06:12:08;2.42;;;1.15;;
15677;SDS011;7939;50.814;6.368;2024-02-04T06:14:35;1.45;;;1.35;;
15677;SDS011;7939;50.814;6.368;2024-02-04T06:17:05;1.95;;;1.60;;
15677;SDS011;7939;50.814;6.368;2024-02-04T06:19:33;1.67;;;1.58;;
15677;SDS011;7939;50.814;6.368;2024-02-04T06:22:00;2.00;;;1.48;;
15677;SDS011;7939;50.814;6.368;2024-02-04T06:24:27;1.55;;;1.45;;
15677;SDS011;7939;50.814;6.368;2024-02-04T06:26:55;1.48;;;1.27;;
15677;SDS011;7939;50.814;6.368;2024-02-04T06:29:22;1.33;;;1.23;;
15677;SDS011;7939;50.814;6.368;2024-02-04T06:31:49;1.55;;;1.33;;
15677;SDS011;7939;50.814;6.368;2024-02-04T06:34:15;2.75;;;1.40;;
15677;SDS011;7939;50.814;6.368;2024-02-04T06:36:42;1.30;;;1.20;;
15677;SDS011;7939;50.814;6.368;2024-02-04T06:39:10;1.30;;;1.20;;
15677;SDS011;7939;50.814;6.368;2024-02-04T06:41:37;1.30;;;1.20;;
15677;SDS011;7939;50.814;6.368;2024-02-04T06:44:05;1.45;;;1.35;;
15677;SDS011;7939;50.814;6.368;2024-02-04T06:46:32;1.50;;;1.30;;
15677;SDS011;7939;50.814;6.368;2024-02-04T06:48:59;1.55;;;1.45;;
15677;SDS011;7939;50.814;6.368;2024-02-04T06:51:26;1.42;;;1.33;;
15677;SDS011;7939;50.814;6.368;2024-02-04T06:53:53;1.30;;;1.20;;
15677;SDS011;7939;50.814;6.368;2024-02-04T06:56:19;1.30;;;1.20;;
15677;SDS011;7939;50.814;6.368;2024-02-04T06:58:46;1.17;;;1.10;;
15677;SDS011;7939;50.814;6.368;2024-02-04T07:01:14;0.98;;;0.98;;
15677;SDS011;7939;50.814;6.368;2024-02-04T07:03:41;1.40;;;1.30;;
15677;SDS011;7939;50.814;6.368;2024-02-04T07:06:08;1.33;;;1.23;;
15677;SDS011;7939;50.814;6.368;2024-02-04T07:08:34;1.27;;;1.17;;
15677;SDS011;7939;50.814;6.368;2024-02-04T07:11:01;2.08;;;1.15;;
15677;SDS011;7939;50.814;6.368;2024-02-04T07:13:28;1.27;;;1.17;;
15677;SDS011;7939;50.814;6.368;2024-02-04T07:15:55;1.30;;;1.17;;
15677;SDS011;7939;50.814;6.368;2024-02-04T07:18:24;1.40;;;1.30;;
15677;SDS011;7939;50.814;6.368;2024-02-04T07:20:51;1.48;;;1.38;;
15677;SDS011;7939;50.814;6.368;2024-02-04T07:23:18;1.42;;;1.33;;
15677;SDS011;7939;50.814;6.368;2024-02-04T07:25:44;1.60;;;1.50;;
15677;SDS011;7939;50.814;6.368;2024-02-04T07:28:11;1.73;;;1.50;;
15677;SDS011;7939;50.814;6.368;2024-02-04T07:30:38;1.75;;;1.50;;
15677;SDS011;7939;50.814;6.368;2024-02-04T07:33:05;1.65;;;1.42;;
15677;SDS011;7939;50.814;6.368;2024-02-04T07:35:33;1.30;;;1.13;;
15677;SDS011;7939;50.814;6.368;2024-02-04T07:38:00;1.50;;;1.35;;
15677;SDS011;7939;50.814;6.368;2024-02-04T07:40:27;1.30;;;1.20;;
15677;SDS011;7939;50.814;6.368;2024-02-04T07:42:55;1.65;;;1.52;;
15677;SDS011;7939;50.814;6.368;2024-02-04T07:45:22;1.83;;;1.70;;
15677;SDS011;7939;50.814;6.368;2024-02-04T07:47:48;1.65;;;1.55;;
15677;SDS011;7939;50.814;6.368;2024-02-04T07:50:15;1.65;;;1.45;;
15677;SDS011;7939;50.814;6.368;2024-02-04T07:52:43;1.65;;;1.45;;
15677;SDS011;7939;50.814;6.368;2024-02-04T07:55:10;1.40;;;1.15;;
15677;SDS011;7939;50.814;6.368;2024-02-04T07:57:37;1.55;;;1.38;;
15677;SDS011;7939;50.814;6.368;2024-02-04T08:00:04;1.50;;;1.40;;
15677;SDS011;7939;50.814;6.368;2024-02-04T08:02:35;3.00;;;1.83;;
15677;SDS011;7939;50.814;6.368;2024-02-04T08:05:02;2.00;;;1.80;;
15677;SDS011;7939;50.814;6.368;2024-02-04T08:07:29;2.35;;;2.13;;
15677;SDS011;7939;50.814;6.368;2024-02-04T08:09:57;2.08;;;1.88;;
15677;SDS011;7939;50.814;6.368;2024-02-04T08:12:24;1.60;;;1.50;;
15677;SDS011;7939;50.814;6.368;2024-02-04T08:14:50;1.88;;;1.70;;
15677;SDS011;7939;50.814;6.368;2024-02-04T08:17:17;1.80;;;1.70;;
15677;SDS011;7939;50.814;6.368;2024-02-04T08:19:44;1.98;;;1.77;;
15677;SDS011;7939;50.814;6.368;2024-02-04T08:22:11;1.95;;;1.77;;
15677;SDS011;7939;50.814;6.368;2024-02-04T08:24:37;2.30;;;2.03;;
15677;SDS011;7939;50.814;6.368;2024-02-04T08:27:06;2.17;;;1.88;;
15677;SDS011;7939;50.814;6.368;2024-02-04T08:29:33;1.80;;;1.60;;
15677;SDS011;7939;50.814;6.368;2024-02-04T08:32:00;2.95;;;1.48;;
15677;SDS011;7939;50.814;6.368;2024-02-04T08:34:26;1.42;;;1.33;;
15677;SDS011;7939;50.814;6.368;2024-02-04T08:36:53;1.08;;;1.08;;
15677;SDS011;7939;50.814;6.368;2024-02-04T08:39:20;1.17;;;1.10;;
15677;SDS011;7939;50.814;6.368;2024-02-04T08:41:47;0.95;;;0.95;;
15677;SDS011;7939;50.814;6.368;2024-02-04T08:44:15;1.08;;;1.08;;
15677;SDS011;7939;50.814;6.368;2024-02-04T08:46:42;1.30;;;0.93;;
15677;SDS011;7939;50.814;6.368;2024-02-04T08:49:09;1.10;;;1.00;;
15677;SDS011;7939;50.814;6.368;2024-02-04T08:51:36;1.00;;;1.00;;
15677;SDS011;7939;50.814;6.368;2024-02-04T08:54:02;1.08;;;1.08;;
15677;SDS011;7939;50.814;6.368;2024-02-04T08:56:29;0.85;;;0.85;;
15677;SDS011;7939;50.814;6.368;2024-02-04T08:58:56;1.25;;;1.15;;
15677;SDS011;7939;50.814;6.368;2024-02-04T09:01:24;1.13;;;1.10;;
15677;SDS011;7939;50.814;6.368;2024-02-04T09:03:51;1.55;;;1.30;;
15677;SDS011;7939;50.814;6.368;2024-02-04T09:06:17;1.30;;;1.20;;
15677;SDS011;7939;50.814;6.368;2024-02-04T09:08:44;2.63;;;2.08;;
15677;SDS011;7939;50.814;6.368;2024-02-04T09:11:11;1.90;;;1.80;;
15677;SDS011;7939;50.814;6.368;2024-02-04T09:13:43;2.10;;;1.88;;
15677;SDS011;7939;50.814;6.368;2024-02-04T09:16:10;2.72;;;2.53;;
15677;SDS011;7939;50.814;6.368;2024-02-04T09:18:38;1.75;;;1.65;;
15677;SDS011;7939;50.814;6.368;2024-02-04T09:21:06;3.05;;;2.45;;
15677;SDS011;7939;50.814;6.368;2024-02-04T09:23:33;4.15;;;3.08;;
15677;SDS011;7939;50.814;6.368;2024-02-04T09:25:59;2.60;;;2.35;;
15677;SDS011;7939;50.814;6.368;2024-02-04T09:28:26;3.38;;;2.75;;
15677;SDS011;7939;50.814;6.368;2024-02-04T09:30:53;3.95;;;3.55;;
15677;SDS011;7939;50.814;6.368;2024-02-04T09:33:20;2.60;;;1.88;;
15677;SDS011;7939;50.814;6.368;2024-02-04T09:35:48;9.68;;;6.45;;
15677;SDS011;7939;50.814;6.368;2024-02-04T09:38:14;4.65;;;3.85;;
15677;SDS011;7939;50.814;6.368;2024-02-04T09:40:41;2.70;;;2.42;;
15677;SDS011;7939;50.814;6.368;2024-02-04T09:43:09;2.00;;;1.90;;
15677;SDS011;7939;50.814;6.368;2024-02-04T09:45:37;2.53;;;1.67;;
15677;SDS011;7939;50.814;6.368;2024-02-04T09:48:06;1.60;;;1.50;;
15677;SDS011;7939;50.814;6.368;2024-02-04T09:50:33;2.10;;;1.90;;
15677;SDS011;7939;50.814;6.368;2024-02-04T09:53:01;2.97;;;1.83;;
15677;SDS011;7939;50.814;6.368;2024-02-04T09:55:33;1.98;;;1.80;;
15677;SDS011;7939;50.814;6.368;2024-02-04T09:58:01;2.13;;;1.92;;
15677;SDS011;7939;50.814;6.368;2024-02-04T10:00:27;2.72;;;2.13;;
15677;SDS011;7939;50.814;6.368;2024-02-04T10:02:57;2.10;;;1.90;;
15677;SDS011;7939;50.814;6.368;2024-02-04T10:05:24;2.22;;;1.67;;
15677;SDS011;7939;50.814;6.368;2024-02-04T10:07:51;1.90;;;1.80;;
15677;SDS011;7939;50.814;6.368;2024-02-04T10:10:19;1.60;;;1.50;;
15677;SDS011;7939;50.814;6.368;2024-02-04T10:12:46;1.75;;;1.50;;
15677;SDS011;7939;50.814;6.368;2024-02-04T10:15:13;1.10;;;1.10;;
15677;SDS011;7939;50.814;6.368;2024-02-04T10:17:42;1.63;;;1.20;;
15677;SDS011;7939;50.814;6.368;2024-02-04T10:20:09;1.00;;;1.00;;
15677;SDS011;7939;50.814;6.368;2024-02-04T10:22:37;0.90;;;0.90;;
15677;SDS011;7939;50.814;6.368;2024-02-04T10:25:05;1.75;;;0.90;;
15677;SDS011;7939;50.814;6.368;2024-02-04T10:27:34;1.00;;;1.00;;
15677;SDS011;7939;50.814;6.368;2024-02-04T10:30:01;0.70;;;0.70;;
15677;SDS011;7939;50.814;6.368;2024-02-04T10:32:27;1.00;;;0.90;;
15677;SDS011;7939;50.814;6.368;2024-02-04T10:34:54;0.88;;;0.88;;
15677;SDS011;7939;50.814;6.368;2024-02-04T10:37:21;1.15;;;1.15;;
15677;SDS011;7939;50.814;6.368;2024-02-04T10:39:48;1.25;;;1.15;;
15677;SDS011;7939;50.814;6.368;2024-02-04T10:42:15;0.80;;;0.80;;
15677;SDS011;7939;50.814;6.368;2024-02-04T10:44:49;1.00;;;1.00;;
15677;SDS011;7939;50.814;6.368;2024-02-04T10:47:20;0.98;;;0.98;;
15677;SDS011;7939;50.814;6.368;2024-02-04T10:49:50;1.02;;;1.00;;
15677;SDS011;7939;50.814;6.368;2024-02-04T10:52:18;1.85;;;1.20;;
15677;SDS011;7939;50.814;6.368;2024-02-04T10:54:46;1.63;;;1.05;;
15677;SDS011;7939;50.814;6.368;2024-02-04T10:57:13;1.33;;;1.23;;
15677;SDS011;7939;50.814;6.368;2024-02-04T10:59:43;1.83;;;1.50;;
15677;SDS011;7939;50.814;6.368;2024-02-04T11:02:12;1.60;;;1.50;;
15677;SDS011;7939;50.814;6.368;2024-02-04T11:04:39;1.75;;;1.65;;
15677;SDS011;7939;50.814;6.368;2024-02-04T11:07:07;2.42;;;1.63;;
15677;SDS011;7939;50.814;6.368;2024-02-04T11:09:36;1.63;;;1.52;;
15677;SDS011;7939;50.814;6.368;2024-02-04T11:12:03;1.75;;;1.65;;
15677;SDS011;7939;50.814;6.368;2024-02-04T11:14:33;2.28;;;2.08;;
15677;SDS011;7939;50.814;6.368;2024-02-04T11:17:28;2.20;;;2.00;;
15677;SDS011;7939;50.814;6.368;2024-02-04T11:20:15;2.92;;;2.40;;
15677;SDS011;7939;50.814;6.368;2024-02-04T11:23:01;3.92;;;2.90;;
15677;SDS011;7939;50.814;6.368;2024-02-04T11:25:44;2.55;;;2.35;;
15677;SDS011;7939;50.814;6.368;2024-02-04T11:28:13;3.88;;;2.17;;
15677;SDS011;7939;50.814;6.368;2024-02-04T11:30:42;2.70;;;2.33;;
15677;SDS011;7939;50.814;6.368;2024-02-04T11:33:11;2.42;;;2.22;;
15677;SDS011;7939;50.814;6.368;2024-02-04T11:35:39;2.40;;;2.20;;
15677;SDS011;7939;50.814;6.368;2024-02-04T11:38:06;2.42;;;2.22;;
15677;SDS011;7939;50.814;6.368;2024-02-04T11:40:34;2.22;;;2.03;;
15677;SDS011;7939;50.814;6.368;2024-02-04T11:43:04;1.80;;;1.70;;
15677;SDS011;7939;50.814;6.368;2024-02-04T11:45:32;2.30;;;2.10;;
15677;SDS011;7939;50.814;6.368;2024-02-04T11:48:00;3.15;;;1.80;;
15677;SDS011;7939;50.814;6.368;2024-02-04T11:50:29;2.22;;;1.90;;
15677;SDS011;7939;50.814;6.368;2024-02-04T11:53:06;2.25;;;2.05;;
15677;SDS011;7939;50.814;6.368;2024-02-04T11:55:34;2.00;;;1.90;;
15677;SDS011;7939;50.814;6.368;2024-02-04T11:58:02;2.75;;;1.60;;
15677;SDS011;7939;50.814;6.368;2024-02-04T12:00:31;4.55;;;2.00;;
15677;SDS011;7939;50.814;6.368;2024-02-04T12:03:01;1.98;;;1.88;;
15677;SDS011;7939;50.814;6.368;2024-02-04T12:05:30;2.00;;;1.80;;
15677;SDS011;7939;50.814;6.368;2024-02-04T12:07:59;2.13;;;1.90;;
15677;SDS011;7939;50.814;6.368;2024-02-04T12:10:27;2.53;;;2.00;;
15677;SDS011;7939;50.814;6.368;2024-02-04T12:12:57;2.47;;;2.28;;
15677;SDS011;7939;50.814;6.368;2024-02-04T12:15:24;2.20;;;1.98;;
15677;SDS011;7939;50.814;6.368;2024-02-04T12:17:52;1.75;;;1.63;;
15677;SDS011;7939;50.814;6.368;2024-02-04T12:20:18;2.30;;;2.10;;
15677;SDS011;7939;50.814;6.368;2024-02-04T12:22:46;3.55;;;2.30;;
15677;SDS011;7939;50.814;6.368;2024-02-04T12:25:14;2.63;;;2.42;;
15677;SDS011;7939;50.814;6.368;2024-02-04T12:27:41;2.53;;;2.30;;
15677;SDS011;7939;50.814;6.368;2024-02-04T12:30:08;2.67;;;2.47;;
15677;SDS011;7939;50.814;6.368;2024-02-04T12:32:35;4.85;;;2.92;;
15677;SDS011;7939;50.814;6.368;2024-02-04T12:35:03;2.63;;;2.42;;
15677;SDS011;7939;50.814;6.368;2024-02-04T12:37:31;3.10;;;2.80;;
15677;SDS011;7939;50.814;6.368;2024-02-04T12:40:00;3.15;;;2.83;;
15677;SDS011;7939;50.814;6.368;2024-02-04T12:42:28;4.15;;;3.13;;
15677;SDS011;7939;50.814;6.368;2024-02-04T12:44:56;3.10;;;2.80;;
15677;SDS011;7939;50.814;6.368;2024-02-04T12:47:23;3.60;;;3.05;;
15677;SDS011;7939;50.814;6.368;2024-02-04T12:49:57;3.10;;;2.72;;
15677;SDS011;7939;50.814;6.368;2024-02-04T12:52:24;3.28;;;2.65;;
15677;SDS011;7939;50.814;6.368;2024-02-04T12:54:51;3.05;;;2.72;;
15677;SDS011;7939;50.814;6.368;2024-02-04T12:57:24;2.60;;;2.40;;
15677;SDS011;7939;50.814;6.368;2024-02-04T12:59:51;2.45;;;2.30;;
15677;SDS011;7939;50.814;6.368;2024-02-04T13:02:18;2.33;;;2.13;;
15677;SDS011;7939;50.814;6.368;2024-02-04T13:04:46;2.47;;;2.28;;
15677;SDS011;7939;50.814;6.368;2024-02-04T13:07:13;3.20;;;2.83;;
15677;SDS011;7939;50.814;6.368;2024-02-04T13:09:42;3.20;;;2.90;;
15677;SDS011;7939;50.814;6.368;2024-02-04T13:12:10;3.15;;;2.85;;
15677;SDS011;7939;50.814;6.368;2024-02-04T13:14:38;2.50;;;2.25;;
15677;SDS011;7939;50.814;6.368;2024-02-04T13:17:05;2.60;;;2.40;;
15677;SDS011;7939;50.814;6.368;2024-02-04T13:19:32;3.75;;;2.38;;
15677;SDS011;7939;50.814;6.368;2024-02-04T13:22:00;2.75;;;2.55;;
15677;SDS011;7939;50.814;6.368;2024-02-04T13:24:27;3.85;;;3.45;;
15677;SDS011;7939;50.814;6.368;2024-02-04T13:26:53;6.97;;;6.28;;
15677;SDS011;7939;50.814;6.368;2024-02-04T13:29:20;5.25;;;4.82;;
15677;SDS011;7939;50.814;6.368;2024-02-04T13:31:48;2.80;;;2.60;;
15677;SDS011;7939;50.814;6.368;2024-02-04T13:34:15;3.05;;;2.85;;
15677;SDS011;7939;50.814;6.368;2024-02-04T13:36:42;2.85;;;2.65;;
15677;SDS011;7939;50.814;6.368;2024-02-04T13:39:09;2.35;;;2.17;;
15677;SDS011;7939;50.814;6.368;2024-02-04T13:41:37;2.72;;;2.40;;
15677;SDS011;7939;50.814;6.368;2024-02-04T13:44:04;2.70;;;2.50;;
15677;SDS011;7939;50.814;6.368;2024-02-04T13:46:31;2.85;;;2.53;;
15677;SDS011;7939;50.814;6.368;2024-02-04T13:48:59;2.13;;;1.95;;
15677;SDS011;7939;50.814;6.368;2024-02-04T13:51:26;1.80;;;1.70;;
15677;SDS011;7939;50.814;6.368;2024-02-04T13:53:52;1.88;;;1.77;;
15677;SDS011;7939;50.814;6.368;2024-02-04T13:56:19;2.10;;;1.95;;
15677;SDS011;7939;50.814;6.368;2024-02-04T13:58:47;2.10;;;2.00;;
15677;SDS011;7939;50.814;6.368;2024-02-04T14:01:13;2.40;;;2.20;;
15677;SDS011;7939;50.814;6.368;2024-02-04T14:03:40;2.20;;;2.03;;
15677;SDS011;7939;50.814;6.368;2024-02-04T14:06:08;1.75;;;1.65;;
15677;SDS011;7939;50.814;6.368;2024-02-04T14:08:35;2.05;;;1.90;;
15677;SDS011;7939;50.814;6.368;2024-02-04T14:11:02;2.58;;;2.20;;
15677;SDS011;7939;50.814;6.368;2024-02-04T14:13:28;2.55;;;1.95;;
15677;SDS011;7939;50.814;6.368;2024-02-04T14:15:55;2.13;;;2.03;;
15677;SDS011;7939;50.814;6.368;2024-02-04T14:18:21;2.05;;;1.85;;
15677;SDS011;7939;50.814;6.368;2024-02-04T14:20:48;1.73;;;1.63;;
15677;SDS011;7939;50.814;6.368;2024-02-04T14:23:16;2.08;;;1.77;;
15677;SDS011;7939;50.814;6.368;2024-02-04T14:25:43;2.55;;;2.38;;
15677;SDS011;7939;50.814;6.368;2024-02-04T14:28:11;1.88;;;1.77;;
15677;SDS011;7939;50.814;6.368;2024-02-04T14:30:37;2.22;;;1.67;;
15677;SDS011;7939;50.814;6.368;2024-02-04T14:33:04;2.08;;;1.92;;
15677;SDS011;7939;50.814;6.368;2024-02-04T14:35:31;2.30;;;2.10;;
15677;SDS011;7939;50.814;6.368;2024-02-04T14:37:58;2.10;;;1.90;;
15677;SDS011;7939;50.814;6.368;2024-02-04T14:40:26;2.67;;;2.00;;
15677;SDS011;7939;50.814;6.368;2024-02-04T14:42:52;1.65;;;1.55;;
15677;SDS011;7939;50.814;6.368;2024-02-04T14:45:19;1.92;;;1.83;;
15677;SDS011;7939;50.814;6.368;2024-02-04T14:47:46;2.03;;;1.75;;
15677;SDS011;7939;50.814;6.368;2024-02-04T14:50:12;2.15;;;1.92;;
15677;SDS011;7939;50.814;6.368;2024-02-04T14:52:40;2.28;;;2.08;;
15677;SDS011;7939;50.814;6.368;2024-02-04T14:55:07;2.08;;;1.98;;
15677;SDS011;7939;50.814;6.368;2024-02-04T14:57:36;1.80;;;1.70;;
15677;SDS011;7939;50.814;6.368;2024-02-04T15:00:04;2.10;;;2.00;;
15677;SDS011;7939;50.814;6.368;2024-02-04T15:02:32;1.77;;;1.58;;